Tiempo atmosférico en la estación meteorológica de Priego de Cordoba, Córdoba (520 m.)



Fecha
DESCASC
Temp. máxima en grados centígrados (hora)
DESCASC
Temp. mínima en grados centígrados (hora)
DESCASC
Temp. media en grados centígrados
DESCASC
Racha de viento máxima en m/sg (hora)
DESCASC
Velocidad máxima media en intervalos de 10 minutos(hora)
DESCASC
Precipitaciones diarias en mm
DESCASC
Precipitaciones de 00:00 a 06:00 en mm
DESCASC
Precipitaciones de 06:00 a 12:00 en mm
DESCASC
Precipitaciones de 12:00 a 18:00 en mm
DESCASC
Precipitaciones de 18:00 a 24:00 en mm
DESCASC
26-11-2020 10.3 (02:40) 7.5 (20:30) 8.9 7.78 (11:00) 5.83 (11:00) 30.4 7.4 14.2 2.6 6.2
25-11-2020 18.2 (14:20) 7.5 (08:40) 12.9 14.44 (15:20) 7.22 (13:30) 6.8 0 0 1 5.8
24-11-2020 17.9 (14:10) 1.1 (07:30) 9.5 5.56 (16:30) 3.89 (16:30) 0 0 0 0 0
23-11-2020 17.1 (13:30) 0.9 (08:30) 9 5.56 (14:10) 3.61 (00:20) 0 0 0 0 0
22-11-2020 19.1 (15:20) 3.9 (00:00) 11.5 5.28 (16:00) 3.89 (17:20) 0 0 0 0 0
21-11-2020 20 (15:30) 4.9 (00:00) 12.5 6.67 (13:20) 4.72 (14:00) 0 0 0 0 0
20-11-2020 20.7 (14:00) 6.4 (00:00) 13.6 8.61 (16:30) 5.28 (16:30) 0 0 0 0 0
19-11-2020 22.9 (15:50) 7.4 (00:00) 15.1 9.72 (17:50) 5.28 (13:40) 0 0 0 0 0
18-11-2020 23.3 (14:00) 7.1 (00:00) 15.2 7.78 (15:10) 5.28 (15:00) 0 0 0 0 0
17-11-2020 23.9 (14:30) 7.4 (00:00) 15.6 6.11 (18:10) 4.44 (18:10) 0.2 0 0.2 0 0
16-11-2020 21.9 (14:20) 11.5 (00:00) 16.7 6.94 (16:10) 5 (16:10) 0 0 0 0 0
15-11-2020 23.7 (14:30) 10 (00:00) 16.9 7.5 (15:10) 5 (15:50) 0.2 0 0.2 0 0
14-11-2020 16.8 (12:40) 13.2 (00:00) 15 7.5 (12:50) 5.83 (12:50) 0.4 0 0 0.2 0.2
13-11-2020 21.8 (15:20) 6.6 (00:00) 14.2 5 (13:50) 3.61 (13:50) 0 0 0 0 0
12-11-2020 19 (15:10) 6.4 (00:00) 12.7 4.72 (15:30) 3.61 (16:00) 0 0 0 0 0
11-11-2020 20.9 (15:00) 6.8 (00:00) 13.8 8.61 (13:40) 5.56 (13:00) 0 0 0 0 0
10-11-2020 19.1 (15:10) 6.5 (00:00) 12.8 7.22 (17:10) 4.17 (13:40) 0 0 0 0 0
09-11-2020 18.6 (14:50) 7.7 (00:00) 13.2 5.83 (12:30) 4.72 (12:30) 0 0 0 0 0
08-11-2020 19.5 (15:30) 6.6 (00:00) 13 8.06 (13:30) 4.72 (15:20) 0.2 0 0.2 0 0
07-11-2020 17.8 (17:10) 9.4 (00:00) 13.6 14.44 (07:50) 9.17 (08:00) 4.4 2.6 1.6 0.2 0
06-11-2020 25.9 (13:10) 13.7 (00:00) 19.8 20 (10:40) 11.39 (10:30) 7.4 0 0 0 7.4
05-11-2020 20.8 (14:10) 13 (00:00) 16.9 14.17 (03:00) 6.94 (10:00) 3.8 3 0.8 0 0
04-11-2020 15.8 (14:20) 12.1 (00:00) 14 8.33 (21:50) 5 (22:40) 10.4 0.8 8.6 0.2 0.8
03-11-2020 23.9 (12:50) 7.9 (00:00) 15.9 8.33 (15:00) 4.72 (13:00) 0 0 0 0 0
02-11-2020 27 (13:10) 8.4 (00:00) 17.7 7.22 (15:20) 4.72 (15:20) 0 0 0 0 0
01-11-2020 25.4 (14:50) 8.5 (00:00) 16.9 6.67 (16:30) 4.44 (14:10) 0 0 0 0 0
31-10-2020 25 (14:10) 10.3 (00:00) 17.7 6.39 (15:10) 4.44 (14:50) 0 0 0 0 0
30-10-2020 26 (13:10) 9.3 (00:00) 17.7 8.61 (15:10) 5.28 (14:50) 0 0 0 0 0

Gráficas

Temp. máximas Temp. mínimas Temp. medias Precipitaciones Rachas de viento máximas Velocidades máximas media en intervalos de 10 minutos

Datos horarios

Fecha y hora oficial Temperatura (ºC) Velocidad del viento (km/h) Dirección del viento Racha (km/h) Dirección de racha Precipitación (mm) Presión (hPa) Tendencia (hPa) Humedad (%)
2020-11-28 23:00:00 -- -- -- -- -- -- -- -- --
2020-11-28 22:00:00 -- -- -- -- -- -- -- -- --
2020-11-28 21:00:00 -- -- -- -- -- -- -- -- --
2020-11-28 20:00:00 -- -- -- -- -- -- -- -- --
2020-11-28 19:00:00 9.9 3 Norte 6 Norte 0 -- -- 91
2020-11-28 18:00:00 10.5 5 Norte 6 Norte 0 -- -- 89
2020-11-28 17:00:00 10.9 4 Norte 5 Norte 0 -- -- 89
2020-11-28 16:00:00 11 5 Sur 12 Sur 0 -- -- 86
2020-11-28 15:00:00 11 9 Sur 24 Sudoeste 0.2 -- -- 83
2020-11-28 14:00:00 10.9 13 Sudoeste 21 Sudoeste 0 -- -- 83
2020-11-28 13:00:00 10.3 17 Sudoeste 23 Sudoeste 0 -- -- 86
2020-11-28 12:00:00 10.1 12 Sudoeste 19 Sudoeste 0 -- -- 89
2020-11-28 11:00:00 9.6 2 Nordeste 6 Norte 0 -- -- 98
2020-11-28 10:00:00 8.5 0 Calma 2 Norte 0.2 -- -- 98
2020-11-28 09:00:00 7.9 2 Sudoeste 5 Oeste 0.2 -- -- 97
2020-11-28 08:00:00 7.8 3 Sur 4 Sudoeste 0.2 -- -- 97
2020-11-28 07:00:00 7.8 0 Calma 0 Calma 0 -- -- 97
2020-11-28 06:00:00 7.7 0 Calma 4 Noroeste 0 -- -- 97
2020-11-28 05:00:00 7.6 0 Calma 3 Este 0 -- -- 96
2020-11-28 04:00:00 7.6 0 Calma 5 Sur 0 -- -- 96
2020-11-28 03:00:00 7.7 4 Sur 7 Sur 0 -- -- 96
2020-11-28 02:00:00 7.6 4 Sur 6 Sur 0 -- -- 96
2020-11-28 01:00:00 7.6 3 Sur 10 Sudoeste 0.2 -- -- 96
2020-11-28 00:00:00 7.7 8 Sudoeste 14 Sudoeste 0 -- -- 95
2020-11-27 23:00:00 7.4 7 Sudoeste 8 Sudoeste 0 -- -- 95
2020-11-27 22:00:00 7.5 3 Sudoeste 4 Sudoeste 0 -- -- 94
2020-11-27 21:00:00 7.3 0 Calma 5 Este 0 -- -- 93
2020-11-27 20:00:00 7.3 3 Noroeste 7 Sudoeste 0 -- -- 94
2020-11-27 19:00:00 8 6 Sudoeste 10 Sudoeste 0 -- -- 89
2020-11-27 18:00:00 8.2 3 Oeste 17 Sudoeste 0 -- -- 86
2020-11-27 17:00:00 8.6 14 Sudoeste 21 Sudoeste 0 -- -- 85
2020-11-27 16:00:00 8.8 0 Calma 10 Nordeste 0 -- -- 90
2020-11-27 15:00:00 8.8 8 Nordeste 14 Nordeste 0 -- -- 90
2020-11-27 14:00:00 9.2 4 Noroeste 8 Sudoeste 0 -- -- 92
2020-11-27 13:00:00 8.3 4 Oeste 8 Sudoeste 0 -- -- 92
2020-11-27 12:00:00 8.1 3 Sur 8 Sudoeste 0 -- -- 91
2020-11-27 11:00:00 7.4 7 Sudoeste 10 Sudoeste 0 -- -- 93
2020-11-27 10:00:00 6.6 4 Sudoeste 6 Sudoeste 0.2 -- -- 97
2020-11-27 09:00:00 6.4 3 Norte 4 Noroeste 0.2 -- -- 97
2020-11-27 08:00:00 6.3 3 Norte 4 Oeste 0.2 -- -- 97
2020-11-27 07:00:00 6.4 3 Sudoeste 5 Oeste 0.8 -- -- 96
2020-11-27 06:00:00 6.5 0 Calma 4 Oeste 1.4 -- -- 96
2020-11-27 05:00:00 6.4 0 Calma 4 Sudeste 2 -- -- 96
2020-11-27 04:00:00 6.5 4 Sudeste 8 Sudoeste 2 -- -- 94
2020-11-27 03:00:00 6.8 8 Sudoeste 13 Sudoeste 3.2 -- -- 95
2020-11-27 02:00:00 7.2 4 Sudoeste 12 Sudoeste 5.4 -- -- 95
2020-11-27 01:00:00 7.5 11 Oeste 16 Sudoeste 4.4 -- -- 95
2020-11-27 00:00:00 8 10 Oeste 13 Oeste 4.4 -- -- 92
2020-11-26 23:00:00 7.8 7 Norte 15 Sudoeste 1.8 -- -- 96
2020-11-26 22:00:00 7.7 0 Calma 9 Sudoeste 0 -- -- 96
2020-11-26 21:00:00 7.5 8 Sudoeste 12 Sudoeste 0 -- -- 96
2020-11-26 20:00:00 8 2 Sudoeste 9 Nordeste 0 -- -- 94
2020-11-26 19:00:00 8.7 6 Nordeste 8 Nordeste 0 -- -- 91
2020-11-26 18:00:00 9.3 0 Calma 5 Sudoeste 0 -- -- 87
2020-11-26 17:00:00 10 6 Sur 17 Sur 0 -- -- 81
2020-11-26 16:00:00 9.9 12 Sur 17 Sur 0 -- -- 84
2020-11-26 15:00:00 9.5 7 Oeste 12 Sudoeste 0 -- -- 87
2020-11-26 14:00:00 8.7 0 Calma 22 Sudeste 1 -- -- 90
2020-11-26 13:00:00 8.7 7 Sur 17 Sudoeste 1.6 -- -- 93
2020-11-26 12:00:00 8.6 6 Oeste 22 Sudoeste 1.6 -- -- 92
2020-11-26 11:00:00 8.7 21 Sudoeste 28 Sudoeste 4 -- -- 95
2020-11-26 10:00:00 9.2 2 Sur 9 Este 4.4 -- -- 97
2020-11-26 09:00:00 9.1 5 Oeste 9 Sudoeste 2.4 -- -- 97
2020-11-26 08:00:00 9.1 8 Sudoeste 21 Nordeste 0.2 -- -- 97
2020-11-26 07:00:00 9 16 Nordeste 20 Nordeste 1.6 -- -- 97
2020-11-26 06:00:00 9.2 11 Nordeste 16 Nordeste 3.2 -- -- 96
2020-11-26 05:00:00 9.3 8 Norte 9 Norte 2.8 -- -- 95
2020-11-26 04:00:00 9.9 8 Oeste 17 Sudeste 1 -- -- 91
2020-11-26 03:00:00 9.5 6 Sur 10 Sudoeste 0.2 -- -- 92
2020-11-26 02:00:00 9.4 8 Sudoeste 12 Sudoeste 0 -- -- 92
2020-11-26 01:00:00 9.2 4 Nordeste 14 Oeste 0.2 -- -- 94
2020-11-26 00:00:00 9 7 Sudoeste 12 Sudoeste 0.2 -- -- 95
2020-11-25 23:00:00 8.9 4 Norte 8 Norte 0 -- -- 94
2020-11-25 22:00:00 9 2 Este 9 Oeste 0.2 -- -- 94
2020-11-25 21:00:00 9.4 10 Oeste 14 Sudoeste 0.6 -- -- 94
2020-11-25 20:00:00 9.6 8 Sur 38 Sudoeste 4.8 -- -- 92
2020-11-25 19:00:00 10.6 6 Nordeste 9 Norte 0 -- -- 91
2020-11-25 18:00:00 11 3 Sudoeste 13 Sudoeste 0.2 -- -- 88
2020-11-25 17:00:00 11.3 9 Sur 26 Sur 0.4 -- -- 86
2020-11-25 16:00:00 11.4 23 Sur 52 Sudoeste 0.4 -- -- 83
2020-11-25 15:00:00 17.1 23 Sudoeste 37 Sudoeste 0 -- -- 53
2020-11-25 14:00:00 17.7 24 Sur 37 Sur 0 -- -- 54
2020-11-25 13:00:00 16.8 25 Sur 35 Sur 0 -- -- 57
2020-11-25 12:00:00 15.2 11 Sudoeste 25 Sudeste 0 -- -- 62
2020-11-25 11:00:00 11.7 0 Calma 4 Oeste 0 -- -- 80
2020-11-25 10:00:00 9.1 4 Sudoeste 7 Sudoeste 0 -- -- 88
2020-11-25 09:00:00 7.8 0 Calma 8 Norte 0 -- -- 91
2020-11-25 08:00:00 8.6 4 Norte 6 Norte 0 -- -- 88
2020-11-25 07:00:00 9.6 0 Calma 7 Sudoeste 0 -- -- 82
2020-11-25 06:00:00 10.1 5 Sur 9 Sudoeste 0 -- -- 83
2020-11-25 05:00:00 10.4 4 Sudoeste 8 Sur 0 -- -- 81
2020-11-25 04:00:00 10.6 5 Sur 14 Sur 0 -- -- 80
2020-11-25 03:00:00 10 12 Sudoeste 15 Sudoeste 0 -- -- 79
2020-11-25 02:00:00 9.9 7 Sudoeste 15 Sudoeste 0 -- -- 73
2020-11-25 01:00:00 8.7 11 Sudoeste 14 Sudoeste 0 -- -- 78
2020-11-25 00:00:00 8.3 10 Sudoeste 13 Sudoeste 0 -- -- 78
2020-11-24 23:00:00 7 13 Sudoeste 16 Sudoeste 0 -- -- 83
2020-11-24 22:00:00 7 9 Sudoeste 11 Sudoeste 0 -- -- 81
2020-11-24 21:00:00 8.4 8 Sudoeste 10 Sudoeste 0 -- -- 76
2020-11-24 20:00:00 10.8 3 Nordeste 18 Nordeste 0 -- -- 65
2020-11-24 19:00:00 12.2 13 Nordeste 19 Nordeste 0 -- -- 61
2020-11-24 18:00:00 13.6 12 Nordeste 17 Nordeste 0 -- -- 58
2020-11-24 17:00:00 15.9 9 Nordeste 20 Norte 0 -- -- 50
2020-11-24 16:00:00 17.2 8 Nordeste 18 Nordeste 0 -- -- 43
2020-11-24 15:00:00 17.6 9 Nordeste 17 Nordeste 0 -- -- 38
2020-11-24 14:00:00 17.7 7 Sudoeste 18 Sudoeste 0 -- -- 39
2020-11-24 13:00:00 17.6 9 Sudoeste 16 Sudoeste 0 -- -- 38
2020-11-24 12:00:00 14.4 4 Norte 8 Norte 0 -- -- 39
2020-11-24 11:00:00 12 0 Calma 6 Norte 0 -- -- 51
2020-11-24 10:00:00 6.8 3 Sudoeste 6 Sudoeste 0 -- -- 66
2020-11-24 09:00:00 2.6 6 Sudoeste 13 Sudoeste 0 -- -- 81
2020-11-24 08:00:00 1.6 11 Sudoeste 14 Sudoeste 0 -- -- 83
2020-11-24 07:00:00 2.3 9 Sudoeste 12 Sudoeste 0 -- -- 80
2020-11-24 06:00:00 2.3 8 Sudoeste 11 Sudoeste 0 -- -- 83
2020-11-24 05:00:00 2.4 8 Sudoeste 12 Sudoeste 0 -- -- 84
2020-11-24 04:00:00 2.9 10 Sudoeste 12 Sudoeste 0 -- -- 83
2020-11-24 03:00:00 2.7 8 Sudoeste 12 Sudoeste 0 -- -- 84
2020-11-24 02:00:00 2.8 10 Sudoeste 13 Sudoeste 0 -- -- 86
2020-11-24 01:00:00 3.2 5 Sudoeste 13 Sudoeste 0 -- -- 85
2020-11-24 00:00:00 3.9 10 Sudoeste 13 Sudoeste 0 -- -- 82
2020-11-23 23:00:00 4.4 9 Sudoeste 13 Sudoeste 0 -- -- 80
2020-11-23 22:00:00 5.5 9 Sudoeste 12 Sudoeste 0 -- -- 77
2020-11-23 21:00:00 6.6 8 Sudoeste 10 Sudoeste 0 -- -- 73
2020-11-23 20:00:00 8.5 8 Sudoeste 13 Sudoeste 0 -- -- 67
2020-11-23 19:00:00 10.9 6 Sudoeste 13 Nordeste 0 -- -- 60
2020-11-23 18:00:00 13.3 11 Nordeste 15 Nordeste 0 -- -- 51
2020-11-23 17:00:00 15.5 13 Nordeste 17 Nordeste 0 -- -- 46
2020-11-23 16:00:00 16.6 11 Nordeste 17 Nordeste 0 -- -- 45
2020-11-23 15:00:00 16.8 11 Nordeste 20 Nordeste 0 -- -- 44
2020-11-23 14:00:00 17 12 Nordeste 17 Nordeste 0 -- -- 41
2020-11-23 13:00:00 16.4 3 Noroeste 7 Norte 0 -- -- 36
2020-11-23 12:00:00 15.2 2 Sur 8 Sudoeste 0 -- -- 42
2020-11-23 11:00:00 9.9 4 Sudoeste 9 Sudoeste 0 -- -- 63
2020-11-23 10:00:00 5 6 Sudoeste 9 Sudoeste 0 -- -- 77
2020-11-23 09:00:00 2.4 8 Sudoeste 12 Sudoeste 0 -- -- 89
2020-11-23 08:00:00 1.4 9 Sudoeste 12 Sudoeste 0 -- -- 91
2020-11-23 07:00:00 1.3 8 Sudoeste 10 Sudoeste 0 -- -- 93
2020-11-23 06:00:00 2 7 Sudoeste 11 Sudoeste 0 -- -- 92
2020-11-23 05:00:00 2.9 5 Sudoeste 9 Sudoeste 0 -- -- 91
2020-11-23 04:00:00 3.1 7 Sudoeste 9 Sudoeste 0 -- -- 89
2020-11-23 03:00:00 3.8 4 Sudoeste 10 Sudoeste 0 -- -- 88
2020-11-23 02:00:00 4.2 7 Sudoeste 9 Sudoeste 0 -- -- 87
2020-11-23 01:00:00 4.1 8 Sudoeste 15 Sudoeste 0 -- -- 86
2020-11-23 00:00:00 3.9 10 Sudoeste 17 Sudoeste 0 -- -- 88
2020-11-22 23:00:00 5.1 9 Sudoeste 12 Sudoeste 0 -- -- 85
2020-11-22 22:00:00 6.3 6 Sudoeste 9 Sudoeste 0 -- -- 80
2020-11-22 21:00:00 7.7 8 Sudoeste 10 Sudoeste 0 -- -- 74
2020-11-22 20:00:00 9.5 6 Sudoeste 8 Sudoeste 0 -- -- 68
2020-11-22 19:00:00 12 5 Nordeste 17 Nordeste 0 -- -- 58
2020-11-22 18:00:00 13.6 12 Nordeste 19 Nordeste 0 -- -- 55
2020-11-22 17:00:00 16.3 12 Norte 19 Norte 0 -- -- 47
2020-11-22 16:00:00 17.7 13 Nordeste 19 Nordeste 0 -- -- 43
2020-11-22 15:00:00 18.5 8 Sudoeste 17 Sudoeste 0 -- -- 32
2020-11-22 14:00:00 18 8 Sudoeste 17 Noroeste 0 -- -- 35
2020-11-22 13:00:00 16 6 Noroeste 14 Nordeste 0 -- -- 42
2020-11-22 12:00:00 15.9 3 Oeste 17 Sudeste 0 -- -- 44
2020-11-22 11:00:00 13.6 5 Sudoeste 12 Oeste 0 -- -- 60
2020-11-22 10:00:00 11.7 4 Nordeste 5 Nordeste 0 -- -- 66
2020-11-22 09:00:00 8.6 3 Oeste 12 Noroeste 0 -- -- 78
2020-11-22 08:00:00 7.6 0 Calma 3 Sudoeste 0 -- -- 81
2020-11-22 07:00:00 7.4 2 Norte 8 Norte 0 -- -- 84
2020-11-22 06:00:00 7.3 7 Nordeste 12 Norte 0 -- -- 87
2020-11-22 05:00:00 9.2 3 Sudoeste 10 Oeste 0 -- -- 79
2020-11-22 04:00:00 10.4 4 Sudoeste 9 Oeste 0 -- -- 77
2020-11-22 03:00:00 10.2 5 Sudoeste 6 Sudoeste 0 -- -- 79
2020-11-22 02:00:00 11.1 2 Sudoeste 8 Sudeste 0 -- -- 76
2020-11-22 01:00:00 11.6 4 Sudeste 10 Sudeste 0 -- -- 75
2020-11-22 00:00:00 11.2 3 Este 7 Oeste 0 -- -- 76
2020-11-21 23:00:00 12.5 6 Sudoeste 12 Sur 0 -- -- 72
2020-11-21 22:00:00 13.1 4 Sudoeste 15 Oeste 0 -- -- 69
2020-11-21 21:00:00 12.9 4 Sudoeste 13 Oeste 0 -- -- 70
2020-11-21 20:00:00 14.7 4 Sudoeste 8 Sudoeste 0 -- -- 64
2020-11-21 19:00:00 15.2 5 Este 14 Nordeste 0 -- -- 64
2020-11-21 18:00:00 15.7 10 Nordeste 15 Nordeste 0 -- -- 64
2020-11-21 17:00:00 18.8 6 Este 23 Sur 0 -- -- 55
2020-11-21 16:00:00 19.3 10 Sur 17 Sur 0 -- -- 50
2020-11-21 15:00:00 19.3 8 Sudeste 22 Sur 0 -- -- 51
2020-11-21 14:00:00 18.8 17 Sudoeste 24 Sur 0 -- -- 53
2020-11-21 13:00:00 19.1 13 Sur 20 Sur 0 -- -- 53
2020-11-21 12:00:00 18.2 13 Sur 21 Sur 0 -- -- 58
2020-11-21 11:00:00 15.4 5 Nordeste 8 Nordeste 0 -- -- 66
2020-11-21 10:00:00 9.8 4 Sudoeste 13 Sudoeste 0 -- -- 81
2020-11-21 09:00:00 5.8 9 Sudoeste 14 Sudoeste 0 -- -- 90
2020-11-21 08:00:00 5.5 7 Sudoeste 8 Sudoeste 0 -- -- 85
2020-11-21 07:00:00 5.8 6 Sudoeste 12 Sudoeste 0 -- -- 88
2020-11-21 06:00:00 6 4 Sudoeste 12 Sudoeste 0 -- -- 83
2020-11-21 05:00:00 6.8 4 Sudoeste 12 Sudoeste 0 -- -- 79
2020-11-21 04:00:00 6.1 9 Sudoeste 13 Sudoeste 0 -- -- 78
2020-11-21 03:00:00 6.9 3 Sudoeste 10 Sudoeste 0 -- -- 69
2020-11-21 02:00:00 7.6 3 Sudeste 12 Sudoeste 0 -- -- 62
2020-11-21 01:00:00 7 10 Sudoeste 17 Sudoeste 0 -- -- 65
2020-11-21 00:00:00 7.1 15 Sudoeste 17 Sudoeste 0 -- -- 64
2020-11-20 23:00:00 9.8 5 Sudoeste 9 Sudoeste 0 -- -- 51
2020-11-20 22:00:00 10.9 5 Sudoeste 8 Sudoeste 0 -- -- 47
2020-11-20 21:00:00 13 7 Sudoeste 10 Sudoeste 0 -- -- 40
2020-11-20 20:00:00 15.6 5 Nordeste 19 Norte 0 -- -- 31
2020-11-20 19:00:00 16.5 9 Nordeste 17 Nordeste 0 -- -- 29
2020-11-20 18:00:00 18.3 10 Norte 23 Norte 0 -- -- 25
2020-11-20 17:00:00 19.8 13 Norte 31 Norte 0 -- -- 24
2020-11-20 16:00:00 20.3 13 Norte 28 Norte 0 -- -- 27
2020-11-20 15:00:00 20.5 16 Norte 27 Norte 0 -- -- 33
2020-11-20 14:00:00 20.7 11 Norte 21 Nordeste 0 -- -- 40
2020-11-20 13:00:00 20 8 Norte 15 Nordeste 0 -- -- 47
2020-11-20 12:00:00 18.5 10 Nordeste 15 Nordeste 0 -- -- 52
2020-11-20 11:00:00 14.8 3 Norte 5 Norte 0 -- -- 61
2020-11-20 10:00:00 11.5 3 Sudoeste 7 Sudoeste 0 -- -- 78
2020-11-20 09:00:00 7.4 11 Sudoeste 15 Sudoeste 0 -- -- 89
2020-11-20 08:00:00 7.7 7 Sudoeste 12 Sudoeste 0 -- -- 86
2020-11-20 07:00:00 7.3 10 Sudoeste 13 Sudoeste 0 -- -- 89
2020-11-20 06:00:00 8.1 5 Sur 8 Sudoeste 0 -- -- 87
2020-11-20 05:00:00 8.6 8 Sudoeste 11 Sudoeste 0 -- -- 84
2020-11-20 04:00:00 8.7 8 Sudoeste 11 Sudoeste 0 -- -- 84
2020-11-20 03:00:00 9.7 3 Sudoeste 14 Sudoeste 0 -- -- 84
2020-11-20 02:00:00 9.5 13 Sudoeste 14 Sudoeste 0 -- -- 84
2020-11-20 01:00:00 10.4 9 Sudoeste 12 Sudoeste 0 -- -- 82
2020-11-20 00:00:00 11.8 6 Oeste 8 Oeste 0 -- -- 75
2020-11-19 23:00:00 12.3 7 Sudoeste 10 Oeste 0 -- -- 76
2020-11-19 22:00:00 14.5 6 Nordeste 10 Nordeste 0 -- -- 64
2020-11-19 21:00:00 14.2 4 Sudoeste 11 Sudoeste 0 -- -- 66
2020-11-19 20:00:00 16.1 6 Sudoeste 12 Sur 0 -- -- 58
2020-11-19 19:00:00 18.9 4 Sur 15 Nordeste 0 -- -- 49
2020-11-19 18:00:00 20.6 13 Nordeste 35 Norte 0 -- -- 45
2020-11-19 17:00:00 22.4 8 Norte 23 Norte 0 -- -- 38
2020-11-19 16:00:00 22.9 17 Norte 27 Nordeste 0 -- -- 35
2020-11-19 15:00:00 22.5 15 Nordeste 25 Nordeste 0 -- -- 40
2020-11-19 14:00:00 22.3 17 Nordeste 25 Nordeste 0 -- -- 44
2020-11-19 13:00:00 21.8 12 Nordeste 17 Nordeste 0 -- -- 43
2020-11-19 12:00:00 20.4 2 Sur 9 Sudoeste 0 -- -- 51
2020-11-19 11:00:00 16.8 2 Sur 7 Sudoeste 0 -- -- 63
2020-11-19 10:00:00 11.3 6 Sudoeste 9 Sudoeste 0 -- -- 76
2020-11-19 09:00:00 8.2 8 Sudoeste 9 Sudoeste 0 -- -- 86
2020-11-19 08:00:00 7.4 6 Sudoeste 10 Sudoeste 0 -- -- 88
2020-11-19 07:00:00 7.8 6 Sudoeste 9 Sudoeste 0 -- -- 87
2020-11-19 06:00:00 8.3 7 Sudoeste 12 Sudoeste 0 -- -- 85
2020-11-19 05:00:00 8.3 9 Sudoeste 12 Sudoeste 0 -- -- 85
2020-11-19 04:00:00 8.7 6 Sudoeste 9 Oeste 0 -- -- 84
2020-11-19 03:00:00 8.5 8 Sudoeste 13 Sudoeste 0 -- -- 86
2020-11-19 02:00:00 8.9 12 Sudoeste 14 Sudoeste 0 -- -- 84
2020-11-19 01:00:00 9.5 8 Sudoeste 9 Sudoeste 0 -- -- 83
2020-11-19 00:00:00 10.4 5 Sudoeste 8 Sudoeste 0 -- -- 80
2020-11-18 23:00:00 10.7 6 Sudoeste 10 Sudoeste 0 -- -- 79
2020-11-18 22:00:00 11.6 9 Sudoeste 12 Sudoeste 0 -- -- 77
2020-11-18 21:00:00 13 5 Sur 12 Sudoeste 0 -- -- 71
2020-11-18 20:00:00 14.7 7 Sudoeste 12 Sudoeste 0 -- -- 66
2020-11-18 19:00:00 16.8 9 Sudoeste 12 Sudoeste 0 -- -- 58
2020-11-18 18:00:00 19.7 9 Nordeste 15 Nordeste 0 -- -- 44
2020-11-18 17:00:00 21.7 11 Nordeste 20 Nordeste 0 -- -- 41
2020-11-18 16:00:00 22.3 17 Nordeste 28 Nordeste 0 -- -- 41
2020-11-18 15:00:00 22.6 19 Nordeste 24 Nordeste 0 -- -- 45
2020-11-18 14:00:00 23.3 12 Nordeste 19 Nordeste 0 -- -- 45
2020-11-18 13:00:00 23.2 6 Nordeste 10 Nordeste 0 -- -- 34
2020-11-18 12:00:00 20.5 4 Sudoeste 8 Sudoeste 0 -- -- 42
2020-11-18 11:00:00 15.9 5 Sudoeste 8 Sudoeste 0 -- -- 65
2020-11-18 10:00:00 11.8 6 Sudoeste 12 Sudoeste 0 -- -- 80
2020-11-18 09:00:00 7.9 11 Sudoeste 14 Sudoeste 0 -- -- 92
2020-11-18 08:00:00 7.3 12 Sudoeste 13 Sudoeste 0 -- -- 93
2020-11-18 07:00:00 7.8 9 Sudoeste 10 Sudoeste 0 -- -- 93
2020-11-18 06:00:00 8.7 5 Sudoeste 8 Sudoeste 0 -- -- 90
2020-11-18 05:00:00 8.4 9 Sudoeste 12 Sudoeste 0 -- -- 93
2020-11-18 04:00:00 8.7 8 Sudoeste 16 Sudoeste 0 -- -- 92
2020-11-18 03:00:00 8.8 11 Sudoeste 13 Sudoeste 0 -- -- 92
2020-11-18 02:00:00 9.5 10 Sudoeste 14 Sudoeste 0 -- -- 92
2020-11-18 01:00:00 10.3 8 Sudoeste 12 Sudoeste 0 -- -- 91
2020-11-18 00:00:00 10.6 11 Sudoeste 14 Sudoeste 0 -- -- 92
2020-11-17 23:00:00 11.7 6 Sudoeste 12 Sudoeste 0 -- -- 90
2020-11-17 22:00:00 12.6 8 Sudoeste 12 Sudoeste 0 -- -- 86
2020-11-17 21:00:00 13.6 9 Sudoeste 10 Sudoeste 0 -- -- 85
2020-11-17 20:00:00 15.4 7 Sudoeste 11 Nordeste 0 -- -- 80
2020-11-17 19:00:00 17.4 6 Nordeste 22 Nordeste 0 -- -- 74
2020-11-17 18:00:00 18.8 13 Nordeste 21 Nordeste 0 -- -- 70
2020-11-17 17:00:00 21.2 13 Nordeste 19 Nordeste 0 -- -- 62
2020-11-17 16:00:00 22.6 11 Nordeste 17 Nordeste 0 -- -- 53
2020-11-17 15:00:00 22.7 12 Nordeste 18 Norte 0 -- -- 49
2020-11-17 14:00:00 23.5 8 Sur 15 Sudoeste 0 -- -- 44
2020-11-17 13:00:00 21.9 4 Sudoeste 9 Nordeste 0 -- -- 52
2020-11-17 12:00:00 19.4 5 Nordeste 8 Norte 0 -- -- 68
2020-11-17 11:00:00 16.5 0 Calma 10 Sudoeste 0 -- -- 82
2020-11-17 10:00:00 12 7 Sudoeste 12 Sudoeste 0 -- -- 94
2020-11-17 09:00:00 9.1 12 Sudoeste 15 Sudoeste 0 -- -- 98
2020-11-17 08:00:00 8.6 8 Sudoeste 13 Sudoeste 0.2 -- -- 96
2020-11-17 07:00:00 8.1 12 Sudoeste 13 Sudoeste 0 -- -- 97
2020-11-17 06:00:00 8 11 Sudoeste 13 Sudoeste 0 -- -- 96
2020-11-17 05:00:00 8.7 8 Sudoeste 9 Sudoeste 0 -- -- 96
2020-11-17 04:00:00 9.1 9 Sudoeste 10 Sudoeste 0 -- -- 96
2020-11-17 03:00:00 10.4 3 Sudoeste 8 Oeste 0 -- -- 97
2020-11-17 02:00:00 10.2 9 Sudoeste 13 Sudoeste 0 -- -- 96
2020-11-17 01:00:00 10.5 9 Sudoeste 12 Sudoeste 0 -- -- 95
2020-11-17 00:00:00 11.5 5 Sudoeste 9 Sudoeste 0 -- -- 94
2020-11-16 23:00:00 12.4 6 Sudoeste 7 Sudoeste 0 -- -- 92
2020-11-16 22:00:00 13.1 4 Sudoeste 8 Sudoeste 0 -- -- 92
2020-11-16 21:00:00 14.6 4 Sudoeste 9 Oeste 0 -- -- 87
2020-11-16 20:00:00 15.3 9 Sudoeste 10 Sudoeste 0 -- -- 87
2020-11-16 19:00:00 17.1 0 Calma 15 Nordeste 0 -- -- 80
2020-11-16 18:00:00 18 10 Este 21 Nordeste 0 -- -- 79
2020-11-16 17:00:00 19.8 11 Nordeste 25 Nordeste 0 -- -- 73
2020-11-16 16:00:00 21.2 15 Nordeste 22 Nordeste 0 -- -- 69
2020-11-16 15:00:00 21.7 9 Norte 18 Norte 0 -- -- 61
2020-11-16 14:00:00 21.4 7 Nordeste 17 Nordeste 0 -- -- 62
2020-11-16 13:00:00 20.9 10 Nordeste 15 Nordeste 0 -- -- 61
2020-11-16 12:00:00 20.6 4 Nordeste 8 Nordeste 0 -- -- 63
2020-11-16 11:00:00 18.8 4 Norte 6 Norte 0 -- -- 66
2020-11-16 10:00:00 15.5 4 Nordeste 12 Sudoeste 0 -- -- 79
2020-11-16 09:00:00 12.6 11 Sudoeste 13 Sudoeste 0 -- -- 86
2020-11-16 08:00:00 12.9 2 Sudoeste 14 Sudoeste 0 -- -- 86
2020-11-16 07:00:00 14.1 8 Sudoeste 13 Sur 0 -- -- 81
2020-11-16 06:00:00 14.8 9 Sur 14 Sur 0 -- -- 77
2020-11-16 05:00:00 12.5 6 Sur 16 Sudoeste 0 -- -- 85
2020-11-16 04:00:00 15.5 5 Sudeste 10 Nordeste 0 -- -- 73
2020-11-16 03:00:00 14.8 6 Oeste 9 Oeste 0 -- -- 78
2020-11-16 02:00:00 14.5 0 Calma 14 Sur 0 -- -- 79
2020-11-16 01:00:00 13.6 12 Sur 15 Sur 0 -- -- 87
2020-11-16 00:00:00 13.5 9 Sudoeste 14 Sudoeste 0 -- -- 88
2020-11-15 23:00:00 14.4 10 Sudoeste 12 Sudoeste 0 -- -- 86
2020-11-15 22:00:00 14.7 8 Sudoeste 12 Sudoeste 0 -- -- 85
2020-11-15 21:00:00 15.6 8 Sudoeste 9 Sudoeste 0 -- -- 81
2020-11-15 20:00:00 17.1 9 Sudoeste 10 Sudoeste 0 -- -- 75
2020-11-15 19:00:00 19.4 4 Sudoeste 6 Sudoeste 0 -- -- 64
2020-11-15 18:00:00 21.1 5 Sudoeste 17 Sur 0 -- -- 58
2020-11-15 17:00:00 23.2 14 Sudoeste 20 Sudoeste 0 -- -- 51
2020-11-15 16:00:00 23.4 16 Sudoeste 27 Sudoeste 0 -- -- 51
2020-11-15 15:00:00 23.5 14 Sudoeste 23 Sudoeste 0 -- -- 51
2020-11-15 14:00:00 23.2 11 Sudoeste 18 Sudoeste 0 -- -- 53
2020-11-15 13:00:00 22 7 Sudoeste 14 Sudoeste 0 -- -- 58
2020-11-15 12:00:00 20.3 5 Sur 17 Sudoeste 0 -- -- 63
2020-11-15 11:00:00 16.1 8 Sudoeste 12 Sudoeste 0 -- -- 81
2020-11-15 10:00:00 12.4 11 Sudoeste 13 Sudoeste 0 -- -- 97
2020-11-15 09:00:00 10.8 7 Sudoeste 9 Oeste 0.2 -- -- 98
2020-11-15 08:00:00 10 7 Sudoeste 12 Sudoeste 0 -- -- 98
2020-11-15 07:00:00 10.2 10 Sudoeste 14 Sudoeste 0 -- -- 97
2020-11-15 06:00:00 10.9 14 Sudoeste 17 Sudoeste 0 -- -- 98
2020-11-15 05:00:00 11.2 9 Sudoeste 12 Sudoeste 0 -- -- 96
2020-11-15 04:00:00 12.1 4 Sudoeste 9 Sudoeste 0 -- -- 95
2020-11-15 03:00:00 11.8 8 Sudoeste 13 Sudoeste 0 -- -- 97
2020-11-15 02:00:00 11.7 3 Sudoeste 9 Sudoeste 0 -- -- 96
2020-11-15 01:00:00 12.1 11 Sudoeste 12 Sudoeste 0 -- -- 96
2020-11-15 00:00:00 13.2 5 Sudoeste 8 Oeste 0.2 -- -- 94
2020-11-14 23:00:00 13.8 4 Sudoeste 6 Este 0 -- -- 94
2020-11-14 22:00:00 14.2 4 Norte 7 Sur 0 -- -- 92
2020-11-14 21:00:00 15 0 Calma 12 Sudoeste 0 -- -- 91
2020-11-14 20:00:00 15.1 7 Sudoeste 19 Sur 0 -- -- 89
2020-11-14 19:00:00 15 12 Sur 14 Sur 0 -- -- 89
2020-11-14 18:00:00 15.3 5 Oeste 13 Sudoeste 0 -- -- 90
2020-11-14 17:00:00 15.4 4 Sur 12 Sudoeste 0.2 -- -- 88
2020-11-14 16:00:00 15.1 8 Sudoeste 25 Sudoeste 0 -- -- 89
2020-11-14 15:00:00 15.8 14 Sudoeste 22 Sudoeste 0 -- -- 81
2020-11-14 14:00:00 16.2 12 Sudoeste 20 Oeste 0 -- -- 77
2020-11-14 13:00:00 16.4 19 Sudoeste 27 Sudoeste 0 -- -- 77
2020-11-14 12:00:00 15.7 5 Nordeste 9 Norte 0 -- -- 83
2020-11-14 11:00:00 14.6 3 Este 8 Norte 0 -- -- 89
2020-11-14 10:00:00 14.5 3 Nordeste 8 Norte 0 -- -- 87
2020-11-14 09:00:00 13.8 3 Nordeste 5 Sudoeste 0 -- -- 90
2020-11-14 08:00:00 13.6 2 Sudoeste 10 Sudoeste 0 -- -- 90
2020-11-14 07:00:00 13.7 4 Sudoeste 9 Sudoeste 0 -- -- 90
2020-11-14 06:00:00 13.5 6 Sudoeste 10 Sudoeste 0 -- -- 92
2020-11-14 05:00:00 13.6 6 Sudoeste 9 Sudoeste 0 -- -- 91
2020-11-14 04:00:00 13.8 8 Sudoeste 9 Sudoeste 0 -- -- 89
2020-11-14 03:00:00 14 4 Oeste 10 Sudoeste 0 -- -- 87
2020-11-14 02:00:00 14.6 0 Calma 11 Sur 0 -- -- 83
2020-11-14 01:00:00 14.4 7 Sudoeste 9 Sudoeste 0 -- -- 83
2020-11-14 00:00:00 14.8 9 Sudoeste 11 Sudoeste 0 -- -- 80
2020-11-13 23:00:00 14.8 8 Sudoeste 10 Sudoeste 0 -- -- 80
2020-11-13 22:00:00 14.8 7 Sudoeste 9 Sudoeste 0 -- -- 78
2020-11-13 21:00:00 15.4 7 Sudoeste 8 Sudoeste 0 -- -- 73
2020-11-13 20:00:00 16.5 0 Calma 6 Sudoeste 0 -- -- 67
2020-11-13 19:00:00 16.9 0 Calma 6 Norte 0 -- -- 64
2020-11-13 18:00:00 18.3 0 Calma 8 Sudoeste 0 -- -- 58
2020-11-13 17:00:00 20 6 Oeste 16 Sudoeste 0 -- -- 48
2020-11-13 16:00:00 21.2 10 Sudoeste 15 Sudoeste 0 -- -- 40
2020-11-13 15:00:00 21 5 Sur 15 Oeste 0 -- -- 49
2020-11-13 14:00:00 19.7 13 Sudoeste 18 Sudoeste 0 -- -- 50
2020-11-13 13:00:00 19.9 8 Sur 17 Sudoeste 0 -- -- 49
2020-11-13 12:00:00 17.7 6 Sudoeste 10 Sudoeste 0 -- -- 65
2020-11-13 11:00:00 13.2 6 Sudoeste 10 Norte 0 -- -- 81
2020-11-13 10:00:00 9.3 7 Sudoeste 9 Sudoeste 0 -- -- 93
2020-11-13 09:00:00 6.9 8 Sudoeste 10 Sudoeste 0 -- -- 96
2020-11-13 08:00:00 6.9 8 Sudoeste 11 Sudoeste 0 -- -- 96
2020-11-13 07:00:00 6.9 8 Sudoeste 10 Sudoeste 0 -- -- 95
2020-11-13 06:00:00 7.1 6 Sudoeste 12 Sudoeste 0 -- -- 95
2020-11-13 05:00:00 7.3 6 Sudoeste 9 Sudoeste 0 -- -- 95
2020-11-13 04:00:00 7.6 9 Sudoeste 13 Sudoeste 0 -- -- 93
2020-11-13 03:00:00 8.3 8 Sudoeste 10 Sudoeste 0 -- -- 92
2020-11-13 02:00:00 8.9 6 Sudoeste 12 Sudoeste 0 -- -- 92
2020-11-13 01:00:00 9.6 10 Sudoeste 11 Sudoeste 0 -- -- 91
2020-11-13 00:00:00 10.5 7 Sudoeste 12 Sudoeste 0 -- -- 88
2020-11-12 23:00:00 11.2 8 Sudoeste 9 Sudoeste 0 -- -- 86
2020-11-12 22:00:00 12.1 5 Sudoeste 8 Oeste 0 -- -- 83
2020-11-12 21:00:00 13 2 Sudeste 5 Sudoeste 0 -- -- 78
2020-11-12 20:00:00 13.6 0 Calma 9 Nordeste 0 -- -- 73
2020-11-12 19:00:00 14.3 6 Norte 13 Nordeste 0 -- -- 71
2020-11-12 18:00:00 15.3 8 Nordeste 14 Nordeste 0 -- -- 67
2020-11-12 17:00:00 17.2 10 Nordeste 14 Nordeste 0 -- -- 61
2020-11-12 16:00:00 17.3 13 Nordeste 17 Nordeste 0 -- -- 61
2020-11-12 15:00:00 18.9 9 Nordeste 14 Nordeste 0 -- -- 52
2020-11-12 14:00:00 17.9 5 Norte 10 Nordeste 0 -- -- 53
2020-11-12 13:00:00 16.5 6 Norte 10 Nordeste 0 -- -- 63
2020-11-12 12:00:00 15 5 Nordeste 6 Nordeste 0 -- -- 70
2020-11-12 11:00:00 11.7 0 Calma 10 Sudoeste 0 -- -- 86
2020-11-12 10:00:00 9.3 5 Sudoeste 9 Sudoeste 0 -- -- 93
2020-11-12 09:00:00 7.7 6 Sudoeste 11 Sudoeste 0 -- -- 96
2020-11-12 08:00:00 6.8 7 Sudoeste 10 Sudoeste 0 -- -- 96
2020-11-12 07:00:00 6.9 9 Sudoeste 11 Sudoeste 0 -- -- 95
2020-11-12 06:00:00 7.3 4 Sudoeste 9 Sudoeste 0 -- -- 93
2020-11-12 05:00:00 7.2 5 Sudoeste 8 Sudoeste 0 -- -- 93
2020-11-12 04:00:00 7.2 6 Sudoeste 10 Sudoeste 0 -- -- 92
2020-11-12 03:00:00 8.2 4 Sudoeste 8 Sudoeste 0 -- -- 90
2020-11-12 02:00:00 8.3 4 Sudoeste 7 Sudoeste 0 -- -- 90
2020-11-12 01:00:00 8.5 6 Sudoeste 12 Sudoeste 0 -- -- 90
2020-11-12 00:00:00 9.3 11 Sudoeste 13 Sudoeste 0 -- -- 88
2020-11-11 23:00:00 10.5 6 Sudoeste 8 Sudoeste 0 -- -- 85
2020-11-11 22:00:00 11.8 2 Sudoeste 10 Sudoeste 0 -- -- 81
2020-11-11 21:00:00 12.5 7 Sudoeste 10 Sudoeste 0 -- -- 79
2020-11-11 20:00:00 13.9 7 Sudoeste 10 Sudoeste 0 -- -- 71
2020-11-11 19:00:00 16 2 Sur 22 Noroeste 0 -- -- 61
2020-11-11 18:00:00 16.7 6 Nordeste 17 Norte 0 -- -- 60
2020-11-11 17:00:00 18.9 6 Norte 26 Norte 0 -- -- 54
2020-11-11 16:00:00 20.6 9 Sudoeste 19 Sudoeste 0 -- -- 42
2020-11-11 15:00:00 20.9 8 Sur 24 Sudoeste 0 -- -- 42
2020-11-11 14:00:00 20.2 15 Sur 31 Sur 0 -- -- 42
2020-11-11 13:00:00 19.3 20 Sur 31 Sur 0 -- -- 46
2020-11-11 12:00:00 18.6 15 Sur 28 Sur 0 -- -- 51
2020-11-11 11:00:00 16.2 3 Sur 8 Sur 0 -- -- 65
2020-11-11 10:00:00 12.2 0 Calma 6 Sur 0 -- -- 82
2020-11-11 09:00:00 8.2 4 Sur 14 Sudoeste 0 -- -- 95
2020-11-11 08:00:00 8 0 Calma 9 Sudoeste 0 -- -- 93
2020-11-11 07:00:00 7.4 9 Sudoeste 12 Sudoeste 0 -- -- 96
2020-11-11 06:00:00 7.5 8 Sudoeste 10 Sudoeste 0 -- -- 93
2020-11-11 05:00:00 8.5 0 Calma 6 Sudoeste 0 -- -- 93
2020-11-11 04:00:00 8.3 4 Sudoeste 11 Oeste 0 -- -- 93
2020-11-11 03:00:00 8.1 6 Sudoeste 11 Sudoeste 0 -- -- 92
2020-11-11 02:00:00 8 9 Sudoeste 12 Sudoeste 0 -- -- 93
2020-11-11 01:00:00 8.7 4 Sudoeste 9 Sudoeste 0 -- -- 91
2020-11-11 00:00:00 8.9 9 Sudoeste 15 Sudoeste 0 -- -- 92
2020-11-10 23:00:00 9.3 11 Sudoeste 12 Sudoeste 0 -- -- 91
2020-11-10 22:00:00 10.2 6 Sudoeste 9 Sudoeste 0 -- -- 88
2020-11-10 21:00:00 11.6 6 Sudoeste 13 Sudoeste 0 -- -- 84
2020-11-10 20:00:00 12.9 7 Sudoeste 9 Sudoeste 0 -- -- 79
2020-11-10 19:00:00 15.1 6 Nordeste 17 Norte 0 -- -- 66
2020-11-10 18:00:00 16.7 10 Norte 26 Noroeste 0 -- -- 59
2020-11-10 17:00:00 18.1 9 Norte 21 Norte 0 -- -- 61
2020-11-10 16:00:00 18.8 10 Norte 19 Norte 0 -- -- 60
2020-11-10 15:00:00 18.9 10 Nordeste 18 Nordeste 0 -- -- 61
2020-11-10 14:00:00 18.1 13 Nordeste 22 Nordeste 0 -- -- 65
2020-11-10 13:00:00 17.2 14 Nordeste 20 Norte 0 -- -- 69
2020-11-10 12:00:00 15.9 4 Nordeste 9 Sudoeste 0 -- -- 76
2020-11-10 11:00:00 11.9 7 Sudoeste 10 Sudoeste 0 -- -- 96
2020-11-10 10:00:00 10.7 7 Sudoeste 10 Sudoeste 0 -- -- 98
2020-11-10 09:00:00 7.6 5 Sudoeste 9 Sudoeste 0 -- -- 98
2020-11-10 08:00:00 7 5 Sudoeste 6 Sudoeste 0 -- -- 96
2020-11-10 07:00:00 7.3 4 Sudoeste 7 Sudoeste 0 -- -- 97
2020-11-10 06:00:00 6.8 5 Sudoeste 7 Sudoeste 0 -- -- 97
2020-11-10 05:00:00 6.5 5 Sudoeste 9 Sudoeste 0 -- -- 97
2020-11-10 04:00:00 7.1 5 Sudoeste 7 Sudoeste 0 -- -- 96
2020-11-10 03:00:00 7.5 5 Sudoeste 8 Oeste 0 -- -- 95
2020-11-10 02:00:00 8 5 Oeste 11 Sudoeste 0 -- -- 96
2020-11-10 01:00:00 8.6 8 Sudoeste 11 Oeste 0 -- -- 95
2020-11-10 00:00:00 9.2 10 Sudoeste 12 Sudoeste 0 -- -- 96
2020-11-09 23:00:00 9.5 6 Sudoeste 9 Sudoeste 0 -- -- 92
2020-11-09 22:00:00 10.1 8 Sudoeste 9 Sudoeste 0 -- -- 93
2020-11-09 21:00:00 10.9 8 Sudoeste 9 Sudoeste 0 -- -- 91
2020-11-09 20:00:00 12.5 4 Sudoeste 11 Nordeste 0 -- -- 89
2020-11-09 19:00:00 13.7 10 Nordeste 14 Nordeste 0 -- -- 87
2020-11-09 18:00:00 14.9 11 Nordeste 19 Nordeste 0 -- -- 81
2020-11-09 17:00:00 15.8 12 Nordeste 18 Nordeste 0 -- -- 78
2020-11-09 16:00:00 16.6 8 Norte 17 Norte 0 -- -- 74
2020-11-09 15:00:00 18.5 5 Norte 12 Sur 0 -- -- 65
2020-11-09 14:00:00 17.1 8 Sur 18 Sudoeste 0 -- -- 68
2020-11-09 13:00:00 15.9 15 Sudoeste 21 Sudoeste 0 -- -- 72
2020-11-09 12:00:00 15.8 3 Oeste 11 Nordeste 0 -- -- 69
2020-11-09 11:00:00 15.1 7 Nordeste 11 Nordeste 0 -- -- 75
2020-11-09 10:00:00 11.2 3 Oeste 5 Oeste 0 -- -- 90
2020-11-09 09:00:00 8.7 4 Sudoeste 7 Sudoeste 0 -- -- 93
2020-11-09 08:00:00 7.8 8 Sudoeste 9 Sudoeste 0 -- -- 94
2020-11-09 07:00:00 8.1 4 Sudoeste 8 Sudoeste 0 -- -- 94
2020-11-09 06:00:00 8.3 5 Sudoeste 6 Sudoeste 0 -- -- 92
2020-11-09 05:00:00 8.4 4 Sudoeste 10 Sudoeste 0 -- -- 93
2020-11-09 04:00:00 9.4 6 Sudoeste 8 Sudoeste 0 -- -- 88
2020-11-09 03:00:00 9 4 Sudoeste 11 Sudoeste 0 -- -- 91
2020-11-09 02:00:00 9.4 9 Sudoeste 10 Sudoeste 0 -- -- 90
2020-11-09 01:00:00 9.9 7 Sudoeste 12 Sudoeste 0 -- -- 88
2020-11-09 00:00:00 9.6 10 Sudoeste 14 Sudoeste 0 -- -- 91
2020-11-08 23:00:00 10.5 8 Sudoeste 10 Sudoeste 0 -- -- 88
2020-11-08 22:00:00 11.5 8 Sudoeste 10 Sudoeste 0 -- -- 85
2020-11-08 21:00:00 12.7 5 Sudoeste 6 Sudoeste 0 -- -- 80
2020-11-08 20:00:00 14.6 4 Sudoeste 8 Sudoeste 0 -- -- 71
2020-11-08 19:00:00 15.9 7 Sudoeste 11 Sur 0 -- -- 65
2020-11-08 18:00:00 17.9 6 Sur 17 Sudoeste 0 -- -- 59
2020-11-08 17:00:00 19.5 8 Sudoeste 18 Sudoeste 0 -- -- 55
2020-11-08 16:00:00 19.5 13 Sudoeste 23 Sudoeste 0 -- -- 57
2020-11-08 15:00:00 18.9 14 Sudoeste 23 Sudoeste 0 -- -- 54
2020-11-08 14:00:00 19.1 13 Oeste 29 Sudoeste 0 -- -- 56
2020-11-08 13:00:00 19 4 Sur 14 Sur 0 -- -- 57
2020-11-08 12:00:00 17.3 4 Sudoeste 8 Sudoeste 0 -- -- 68
2020-11-08 11:00:00 12.8 0 Calma 6 Sudoeste 0 -- -- 92
2020-11-08 10:00:00 9.2 5 Sudoeste 8 Sudoeste 0 -- -- 98
2020-11-08 09:00:00 7.4 6 Sudoeste 8 Sudoeste 0 -- -- 98
2020-11-08 08:00:00 6.8 4 Sudoeste 13 Sudoeste 0.2 -- -- 98
2020-11-08 07:00:00 7.2 9 Sudoeste 15 Sudoeste 0 -- -- 97
2020-11-08 06:00:00 7.5 5 Sudoeste 10 Sudoeste 0 -- -- 97
2020-11-08 05:00:00 7.6 7 Sudoeste 10 Sudoeste 0 -- -- 97
2020-11-08 04:00:00 7.6 3 Sur 13 Sudoeste 0 -- -- 97
2020-11-08 03:00:00 7.5 8 Sudoeste 12 Sudoeste 0 -- -- 96
2020-11-08 02:00:00 8.6 6 Sudoeste 8 Sudoeste 0 -- -- 95
2020-11-08 01:00:00 9.3 4 Sudoeste 8 Sudoeste 0 -- -- 96
2020-11-08 00:00:00 9.5 8 Sudoeste 13 Sudoeste 0 -- -- 95
2020-11-07 23:00:00 9.9 10 Sudoeste 12 Sudoeste 0 -- -- 94
2020-11-07 22:00:00 10.6 9 Sudoeste 11 Sudoeste 0 -- -- 93
2020-11-07 21:00:00 11.7 10 Oeste 11 Oeste 0 -- -- 91
2020-11-07 20:00:00 13.8 2 Norte 9 Este 0 -- -- 81
2020-11-07 19:00:00 14.4 4 Este 8 Sudoeste 0 -- -- 78
2020-11-07 18:00:00 16.9 6 Sudoeste 14 Sudoeste 0 -- -- 68
2020-11-07 17:00:00 17.6 8 Oeste 20 Sudoeste 0 -- -- 65
2020-11-07 16:00:00 17 14 Sudoeste 25 Sudoeste 0 -- -- 67
2020-11-07 15:00:00 16.5 17 Sudoeste 39 Sudoeste 0 -- -- 65
2020-11-07 14:00:00 17.3 20 Sudoeste 33 Sudoeste 0.2 -- -- 66
2020-11-07 13:00:00 15.6 19 Sudoeste 31 Oeste 0 -- -- 73
2020-11-07 12:00:00 15.1 18 Sur 36 Sudoeste 0 -- -- 81
2020-11-07 11:00:00 13.7 14 Sur 35 Sur 0 -- -- 86
2020-11-07 10:00:00 12.9 23 Sur 41 Sur 0 -- -- 89
2020-11-07 09:00:00 12.8 16 Sudoeste 46 Sudoeste 0.4 -- -- 89
2020-11-07 08:00:00 14.5 33 Sudoeste 52 Sudoeste 0.2 -- -- 75
2020-11-07 07:00:00 13.2 16 Sudoeste 34 Sur 1 -- -- 88
2020-11-07 06:00:00 13.5 21 Sur 30 Sur 0.8 -- -- 86
2020-11-07 05:00:00 13.9 17 Sur 25 Sudeste 0 -- -- 81
2020-11-07 04:00:00 13.8 9 Sur 27 Sur 0.4 -- -- 83
2020-11-07 03:00:00 14.3 12 Sur 38 Sur 0 -- -- 79
2020-11-07 02:00:00 14.9 24 Sur 37 Sur 0 -- -- 74
2020-11-07 01:00:00 13.9 18 Sur 45 Sudeste 1.4 -- -- 80
2020-11-07 00:00:00 13.7 16 Sudeste 24 Este 3.2 -- -- 87
2020-11-06 23:00:00 14.4 4 Oeste 11 Sudoeste 1.8 -- -- 89
2020-11-06 22:00:00 14.9 5 Sudeste 25 Sudoeste 1.8 -- -- 84
2020-11-06 21:00:00 16.9 8 Sur 19 Norte 0.6 -- -- 77
2020-11-06 20:00:00 18.1 9 Nordeste 21 Sur 0 -- -- 64
2020-11-06 19:00:00 19.4 5 Norte 12 Sur 0 -- -- 56
2020-11-06 18:00:00 21.3 5 Sur 22 Sudoeste 0 -- -- 43
2020-11-06 17:00:00 23.2 11 Sudoeste 39 Sur 0 -- -- 33
2020-11-06 16:00:00 24.5 22 Sudeste 40 Sudeste 0 -- -- 31
2020-11-06 15:00:00 24.4 20 Sur 39 Sudeste 0 -- -- 30
2020-11-06 14:00:00 24.8 27 Sur 55 Sudeste 0 -- -- 31
2020-11-06 13:00:00 25.8 21 Sudeste 39 Sur 0 -- -- 31
2020-11-06 12:00:00 23.7 16 Sur 45 Sur 0 -- -- 34
2020-11-06 11:00:00 23.5 29 Sur 72 Sur 0 -- -- 34
2020-11-06 10:00:00 22 31 Sudeste 50 Sudeste 0 -- -- 35
2020-11-06 09:00:00 20.9 17 Sudoeste 56 Sur 0 -- -- 37
2020-11-06 08:00:00 21.1 31 Sudeste 48 Sudeste 0 -- -- 36
2020-11-06 07:00:00 17.8 8 Sudeste 30 Sur 0 -- -- 46
2020-11-06 06:00:00 15.6 8 Norte 18 Norte 0 -- -- 59
2020-11-06 05:00:00 15.3 12 Norte 15 Norte 0 -- -- 59
2020-11-06 04:00:00 15.7 6 Nordeste 28 Este 0 -- -- 58
2020-11-06 03:00:00 18 16 Este 28 Este 0 -- -- 49
2020-11-06 02:00:00 16.1 9 Nordeste 15 Este 0 -- -- 53
2020-11-06 01:00:00 16.7 6 Nordeste 16 Oeste 0 -- -- 54
2020-11-06 00:00:00 17.1 4 Sudoeste 14 Sudoeste 0 -- -- 51
2020-11-05 23:00:00 16 4 Sur 14 Sur 0 -- -- 57
2020-11-05 22:00:00 15.5 6 Sudoeste 11 Sudoeste 0 -- -- 62
2020-11-05 21:00:00 15.3 6 Norte 15 Nordeste 0 -- -- 64
2020-11-05 20:00:00 13.5 3 Noroeste 13 Sudeste 0 -- -- 84
2020-11-05 19:00:00 13.6 11 Norte 16 Nordeste 0 -- -- 84
2020-11-05 18:00:00 14.7 8 Nordeste 19 Nordeste 0 -- -- 80
2020-11-05 17:00:00 16.8 13 Nordeste 17 Nordeste 0 -- -- 72
2020-11-05 16:00:00 18.5 12 Sudoeste 45 Sudeste 0 -- -- 66
2020-11-05 15:00:00 20 16 Sur 41 Sur 0 -- -- 49
2020-11-05 14:00:00 20.6 15 Sur 35 Sur 0 -- -- 49
2020-11-05 13:00:00 17.6 10 Norte 21 Noroeste 0 -- -- 65
2020-11-05 12:00:00 16.2 11 Norte 18 Norte 0 -- -- 72
2020-11-05 11:00:00 15.6 5 Nordeste 37 Sur 0.4 -- -- 73
2020-11-05 10:00:00 15.5 25 Sur 46 Sur 0.4 -- -- 73
2020-11-05 09:00:00 16.3 12 Sur 32 Este 0 -- -- 68
2020-11-05 08:00:00 15.7 4 Sudeste 16 Sudoeste 0 -- -- 68
2020-11-05 07:00:00 15.6 5 Noroeste 29 Este 0 -- -- 68
2020-11-05 06:00:00 15.7 8 Este 32 Sudeste 0 -- -- 65
2020-11-05 05:00:00 14.9 7 Noroeste 34 Sur 0 -- -- 66
2020-11-05 04:00:00 14.5 14 Norte 39 Sudeste 0 -- -- 70
2020-11-05 03:00:00 14.8 17 Sudoeste 51 Sudeste 0.6 -- -- 68
2020-11-05 02:00:00 13.8 6 Este 27 Nordeste 2.4 -- -- 78
2020-11-05 01:00:00 14 6 Noroeste 18 Nordeste 0 -- -- 80
2020-11-05 00:00:00 13.6 7 Nordeste 17 Sur 0.2 -- -- 83
2020-11-04 23:00:00 14.9 14 Sur 28 Sur 0.6 -- -- 76
2020-11-04 22:00:00 15 16 Sur 30 Sudeste 0 -- -- 71
2020-11-04 21:00:00 14.1 8 Sudoeste 15 Sur 0 -- -- 80
2020-11-04 20:00:00 13.4 0 Calma 9 Oeste 0 -- -- 94
2020-11-04 19:00:00 13.7 3 Noroeste 6 Norte 0 -- -- 93
2020-11-04 18:00:00 13.9 4 Norte 10 Nordeste 0 -- -- 91
2020-11-04 17:00:00 14.9 9 Nordeste 12 Norte 0 -- -- 87
2020-11-04 16:00:00 15.5 5 Sudoeste 14 Sudoeste 0 -- -- 82
2020-11-04 15:00:00 15.8 4 Nordeste 8 Este 0 -- -- 80
2020-11-04 14:00:00 15.2 0 Calma 10 Sur 0 -- -- 85
2020-11-04 13:00:00 13.6 6 Sudoeste 10 Sur 0.2 -- -- 91
2020-11-04 12:00:00 12.4 5 Sur 8 Sudoeste 3.2 -- -- 91
2020-11-04 11:00:00 12.8 6 Sudoeste 9 Sudoeste 0.2 -- -- 90
2020-11-04 10:00:00 12.4 2 Oeste 9 Oeste 1.4 -- -- 93
2020-11-04 09:00:00 12.4 4 Oeste 13 Sudoeste 1 -- -- 88
2020-11-04 08:00:00 12.3 9 Norte 22 Este 0.8 -- -- 87
2020-11-04 07:00:00 12.8 9 Este 15 Sur 2 -- -- 88
2020-11-04 06:00:00 13.2 8 Sudoeste 10 Nordeste 0.8 -- -- 85
2020-11-04 05:00:00 14.2 6 Nordeste 17 Nordeste 0 -- -- 72
2020-11-04 04:00:00 13.5 9 Nordeste 11 Norte 0 -- -- 79
2020-11-04 03:00:00 13.8 0 Calma 6 Oeste 0 -- -- 77
2020-11-04 02:00:00 13.2 4 Sur 9 Sudoeste 0 -- -- 78
2020-11-04 01:00:00 13.3 5 Sudoeste 6 Sudoeste 0 -- -- 74
2020-11-04 00:00:00 13.7 5 Sudoeste 6 Noroeste 0 -- -- 73
2020-11-03 23:00:00 14.5 3 Sur 6 Sudeste 0 -- -- 68
2020-11-03 22:00:00 15.5 4 Sudoeste 8 Sudoeste 0 -- -- 63
2020-11-03 21:00:00 16.7 4 Sudoeste 9 Sudoeste 0 -- -- 59
2020-11-03 20:00:00 18.2 6 Sudoeste 10 Oeste 0 -- -- 53
2020-11-03 19:00:00 19.6 4 Este 14 Este 0 -- -- 49
2020-11-03 18:00:00 20.6 8 Nordeste 19 Nordeste 0 -- -- 46
2020-11-03 17:00:00 21.7 11 Nordeste 23 Nordeste 0 -- -- 45
2020-11-03 16:00:00 22.6 13 Nordeste 26 Norte 0 -- -- 42
2020-11-03 15:00:00 23.1 15 Norte 30 Norte 0 -- -- 43
2020-11-03 14:00:00 23.6 15 Nordeste 25 Norte 0 -- -- 43
2020-11-03 13:00:00 23.7 17 Nordeste 22 Nordeste 0 -- -- 41
2020-11-03 12:00:00 22 8 Norte 11 Norte 0 -- -- 45
2020-11-03 11:00:00 20.4 5 Nordeste 10 Sudoeste 0 -- -- 48
2020-11-03 10:00:00 14.5 5 Sur 11 Sudoeste 0 -- -- 66
2020-11-03 09:00:00 9.6 10 Sudoeste 13 Sudoeste 0 -- -- 80
2020-11-03 08:00:00 8.1 10 Sudoeste 14 Sudoeste 0 -- -- 84
2020-11-03 07:00:00 8.3 11 Sudoeste 13 Sudoeste 0 -- -- 82
2020-11-03 06:00:00 9.8 6 Sudoeste 8 Oeste 0 -- -- 76
2020-11-03 05:00:00 10 6 Sudoeste 9 Sudoeste 0 -- -- 76
2020-11-03 04:00:00 9.7 5 Sudoeste 14 Sudoeste 0 -- -- 78
2020-11-03 03:00:00 10 12 Sudoeste 14 Sudoeste 0 -- -- 79
2020-11-03 02:00:00 10.2 12 Sudoeste 13 Sudoeste 0 -- -- 79
2020-11-03 01:00:00 12 6 Sudoeste 13 Sudoeste 0 -- -- 72
2020-11-03 00:00:00 11.8 12 Sudoeste 16 Sudoeste 0 -- -- 74
2020-11-02 23:00:00 12.8 11 Sudoeste 13 Sudoeste 0 -- -- 71
2020-11-02 22:00:00 13.6 10 Sudoeste 11 Sudoeste 0 -- -- 69
2020-11-02 21:00:00 15.4 10 Sudoeste 11 Sudoeste 0 -- -- 63
2020-11-02 20:00:00 18.1 6 Sudoeste 13 Sudoeste 0 -- -- 57
2020-11-02 19:00:00 20.6 5 Nordeste 15 Nordeste 0 -- -- 47
2020-11-02 18:00:00 22.6 9 Nordeste 18 Norte 0 -- -- 44
2020-11-02 17:00:00 24.4 10 Norte 23 Norte 0 -- -- 41
2020-11-02 16:00:00 25.1 14 Norte 26 Norte 0 -- -- 40
2020-11-02 15:00:00 25.8 14 Norte 22 Norte 0 -- -- 36
2020-11-02 14:00:00 26 12 Norte 22 Norte 0 -- -- 36
2020-11-02 13:00:00 26.1 4 Sudoeste 10 Sudoeste 0 -- -- 33
2020-11-02 12:00:00 24 4 Norte 8 Nordeste 0 -- -- 41
2020-11-02 11:00:00 20.4 3 Sur 7 Sudoeste 0 -- -- 51
2020-11-02 10:00:00 15.3 5 Sudoeste 8 Sudoeste 0 -- -- 66
2020-11-02 09:00:00 10.6 8 Sudoeste 13 Sudoeste 0 -- -- 83
2020-11-02 08:00:00 8.6 8 Sudoeste 12 Sudoeste 0 -- -- 88
2020-11-02 07:00:00 8.9 8 Sudoeste 11 Sudoeste 0 -- -- 88
2020-11-02 06:00:00 9 11 Sudoeste 12 Sudoeste 0 -- -- 86
2020-11-02 05:00:00 9.7 9 Sudoeste 12 Sudoeste 0 -- -- 85
2020-11-02 04:00:00 10.4 7 Sudoeste 8 Sudoeste 0 -- -- 82
2020-11-02 03:00:00 10.8 7 Sudoeste 9 Sudoeste 0 -- -- 80
2020-11-02 02:00:00 10.8 7 Sudoeste 12 Sudoeste 0 -- -- 81
2020-11-02 01:00:00 11.6 9 Sudoeste 14 Sudoeste 0 -- -- 78
2020-11-02 00:00:00 12.4 12 Sudoeste 17 Sudoeste 0 -- -- 75
2020-11-01 23:00:00 12.8 9 Sudoeste 13 Sudoeste 0 -- -- 75
2020-11-01 22:00:00 13.9 10 Sudoeste 12 Sudoeste 0 -- -- 71
2020-11-01 21:00:00 15.3 9 Sudoeste 12 Sudoeste 0 -- -- 65
2020-11-01 20:00:00 17.6 8 Sudoeste 10 Sudoeste 0 -- -- 57
2020-11-01 19:00:00 20 5 Norte 15 Nordeste 0 -- -- 48
2020-11-01 18:00:00 22 10 Nordeste 19 Nordeste 0 -- -- 43
2020-11-01 17:00:00 23.8 12 Norte 24 Norte 0 -- -- 39
2020-11-01 16:00:00 25.1 13 Nordeste 21 Nordeste 0 -- -- 37
2020-11-01 15:00:00 25.2 15 Nordeste 23 Nordeste 0 -- -- 38
2020-11-01 14:00:00 25.3 12 Nordeste 20 Nordeste 0 -- -- 37
2020-11-01 13:00:00 24.1 5 Norte 10 Norte 0 -- -- 38
2020-11-01 12:00:00 22.7 6 Nordeste 10 Nordeste 0 -- -- 40
2020-11-01 11:00:00 20 4 Este 7 Este 0 -- -- 50
2020-11-01 10:00:00 15.9 0 Calma 5 Sur 0 -- -- 66
2020-11-01 09:00:00 10.7 5 Sudoeste 8 Sudoeste 0 -- -- 83
2020-11-01 08:00:00 8.8 5 Sudoeste 13 Sudoeste 0 -- -- 87
2020-11-01 07:00:00 9.2 13 Sudoeste 14 Sudoeste 0 -- -- 86
2020-11-01 06:00:00 9.3 9 Sudoeste 9 Sudoeste 0 -- -- 87
2020-11-01 05:00:00 10.3 5 Oeste 8 Sudoeste 0 -- -- 83
2020-11-01 04:00:00 9.7 4 Sudoeste 11 Sudoeste 0 -- -- 85
2020-11-01 03:00:00 9.8 8 Sudoeste 13 Sudoeste 0 -- -- 86
2020-11-01 02:00:00 10.9 7 Sudoeste 10 Sudoeste 0 -- -- 82
2020-11-01 01:00:00 12 6 Sudoeste 13 Oeste 0 -- -- 79
2020-11-01 00:00:00 12.7 6 Sudoeste 11 Sudoeste 0 -- -- 77
2020-10-31 23:00:00 13.6 6 Oeste 9 Sudoeste 0 -- -- 73
2020-10-31 22:00:00 14.2 8 Sudoeste 9 Sudoeste 0 -- -- 72
2020-10-31 21:00:00 15.3 5 Sudoeste 10 Sudoeste 0 -- -- 68
2020-10-31 20:00:00 17.6 6 Sudoeste 10 Sudoeste 0 -- -- 59
2020-10-31 19:00:00 20.5 2 Oeste 12 Nordeste 0 -- -- 47
2020-10-31 18:00:00 22.2 7 Nordeste 23 Noroeste 0 -- -- 45
2020-10-31 17:00:00 24 10 Norte 22 Norte 0 -- -- 39
2020-10-31 16:00:00 24.7 12 Norte 23 Nordeste 0 -- -- 38
2020-10-31 15:00:00 24.7 14 Nordeste 22 Nordeste 0 -- -- 36
2020-10-31 14:00:00 24.8 15 Nordeste 23 Nordeste 0 -- -- 36
2020-10-31 13:00:00 23.5 15 Nordeste 22 Nordeste 0 -- -- 42
2020-10-31 12:00:00 22.5 10 Nordeste 15 Nordeste 0 -- -- 43
2020-10-31 11:00:00 19.9 4 Norte 10 Nordeste 0 -- -- 52
2020-10-31 10:00:00 15.2 3 Oeste 10 Sudoeste 0 -- -- 68
2020-10-31 09:00:00 10.9 8 Sudoeste 12 Sudoeste 0 -- -- 85
2020-10-31 08:00:00 10.6 6 Sudoeste 12 Sudoeste 0 -- -- 85
2020-10-31 07:00:00 10.8 5 Sudoeste 11 Oeste 0 -- -- 85
2020-10-31 06:00:00 11.2 6 Sudoeste 9 Sudoeste 0 -- -- 86
2020-10-31 05:00:00 11.7 7 Sudoeste 9 Sudoeste 0 -- -- 84
2020-10-31 04:00:00 11.9 6 Sudoeste 11 Sudoeste 0 -- -- 84
2020-10-31 03:00:00 12.5 7 Sudoeste 12 Sudoeste 0 -- -- 82
2020-10-31 02:00:00 12.9 9 Sudoeste 11 Sudoeste 0 -- -- 80
2020-10-31 01:00:00 12.9 6 Sudoeste 10 Sudoeste 0 -- -- 80
2020-10-31 00:00:00 12.7 8 Sudoeste 12 Sudoeste 0 -- -- 81
2020-10-30 23:00:00 13.7 8 Sudoeste 10 Sudoeste 0 -- -- 77
2020-10-30 22:00:00 15.1 6 Sudoeste 10 Sudoeste 0 -- -- 70
2020-10-30 21:00:00 16.3 6 Sudoeste 9 Sudoeste 0 -- -- 66
2020-10-30 20:00:00 18.4 7 Sudoeste 12 Sur 0 -- -- 58
2020-10-30 19:00:00 20.7 7 Sur 13 Oeste 0 -- -- 52
2020-10-30 18:00:00 22.3 7 Nordeste 18 Nordeste 0 -- -- 45
2020-10-30 17:00:00 24 15 Nordeste 25 Nordeste 0 -- -- 43
2020-10-30 16:00:00 25 16 Nordeste 31 Nordeste 0 -- -- 42
2020-10-30 15:00:00 25.4 17 Nordeste 26 Nordeste 0 -- -- 41
2020-10-30 14:00:00 25.7 14 Nordeste 21 Nordeste 0 -- -- 37
2020-10-30 13:00:00 25.8 6 Oeste 11 Oeste 0 -- -- 33
2020-10-30 12:00:00 24.7 5 Este 13 Oeste 0 -- -- 38
2020-10-30 11:00:00 22.9 5 Sudeste 9 Sudeste 0 -- -- 43
2020-10-30 10:00:00 18.6 2 Nordeste 8 Oeste 0 -- -- 62
2020-10-30 09:00:00 12.1 5 Oeste 10 Sudoeste 0 -- -- 82
2020-10-30 08:00:00 9.4 7 Sudoeste 12 Sudoeste 0 -- -- 86
2020-10-30 07:00:00 9.9 9 Sudoeste 12 Sudoeste 0 -- -- 84
2020-10-30 06:00:00 10 6 Sudoeste 9 Sudoeste 0 -- -- 84
2020-10-30 05:00:00 10.2 10 Sudoeste 13 Sudoeste 0 -- -- 82
2020-10-30 04:00:00 10.5 9 Sudoeste 14 Sudoeste 0 -- -- 83
2020-10-30 03:00:00 10 9 Sudoeste 17 Sudoeste 0 -- -- 85
2020-10-30 02:00:00 11.2 5 Sudoeste 8 Sudoeste 0 -- -- 79
2020-10-30 01:00:00 11.6 7 Sudoeste 13 Sudoeste 0 -- -- 79
2020-10-30 00:00:00 11.8 11 Sudoeste 13 Sudoeste 0 -- -- 79